Time;durP1;ratioP1;P1;durP2;ratioP2;P2;SDS_P1;SDS_P2;PMS_P1;PMS_P2;Temp;Humidity;BMP_temperature;BMP_pressure;BME280_temperature;BME280_humidity;BME280_pressure;Samples;Min_cycle;Max_cycle;Signal;HPM_P1;HPM_P2
2023/07/21 00:00:24;;;;;;;4.00;1.60;;;20.10;49.60;;;;;;4967367;28;20051;-47
2023/07/21 00:02:53;;;;;;;2.08;1.30;;;20.20;49.60;;;;;;4965858;28;20062;-47
2023/07/21 00:05:22;;;;;;;3.75;1.50;;;20.20;49.60;;;;;;4966427;28;20081;-50
2023/07/21 00:07:50;;;;;;;2.85;1.63;;;20.20;49.60;;;;;;4967344;28;20051;-49
2023/07/21 00:10:18;;;;;;;1.63;1.25;;;20.20;49.60;;;;;;4968770;28;20403;-51
2023/07/21 00:12:47;;;;;;;1.90;1.38;;;20.20;49.60;;;;;;4966440;28;20046;-49
2023/07/21 00:15:17;;;;;;;2.55;1.40;;;20.30;49.70;;;;;;4966574;28;20058;-46
2023/07/21 00:17:44;;;;;;;2.47;1.45;;;20.30;49.60;;;;;;4966305;28;20403;-45
2023/07/21 00:20:19;;;;;;;3.80;1.50;;;20.20;49.50;;;;;;4967056;28;20066;-51
2023/07/21 00:22:46;;;;;;;1.83;1.38;;;20.30;49.60;;;;;;4967413;28;20061;-47
2023/07/21 00:25:13;;;;;;;1.95;1.45;;;20.20;49.50;;;;;;4967535;28;20058;-45
2023/07/21 00:27:41;;;;;;;2.38;1.33;;;20.30;49.40;;;;;;4966348;28;20061;-47
2023/07/21 00:30:11;;;;;;;3.40;1.65;;;20.30;49.50;;;;;;4966867;28;20109;-47
2023/07/21 00:32:39;;;;;;;1.80;1.50;;;20.30;49.50;;;;;;4965848;28;20059;-48
2023/07/21 00:35:09;;;;;;;2.00;1.50;;;20.20;49.50;;;;;;4967181;28;20499;-48
2023/07/21 00:37:38;;;;;;;2.28;1.35;;;20.20;49.50;;;;;;4966006;28;20062;-49
2023/07/21 00:40:09;;;;;;;1.30;1.20;;;20.20;49.50;;;;;;4967000;28;20510;-46
2023/07/21 00:42:36;;;;;;;3.30;1.63;;;20.30;49.60;;;;;;4966595;28;21200;-51
2023/07/21 00:45:04;;;;;;;1.80;1.38;;;20.20;49.60;;;;;;4966473;28;20065;-50
2023/07/21 00:47:36;;;;;;;1.85;1.40;;;20.20;49.70;;;;;;4965626;28;20055;-52
2023/07/21 00:50:04;;;;;;;3.25;1.27;;;20.20;49.80;;;;;;4965255;28;20512;-51
2023/07/21 00:52:31;;;;;;;2.05;1.48;;;20.20;49.70;;;;;;4965487;28;20058;-49
2023/07/21 00:54:58;;;;;;;3.75;1.38;;;20.20;49.70;;;;;;4967083;28;20058;-50
2023/07/21 00:57:26;;;;;;;1.55;1.23;;;20.20;49.80;;;;;;4967047;28;20058;-52
2023/07/21 00:59:53;;;;;;;1.55;1.30;;;20.20;49.80;;;;;;4965821;28;20491;-51
2023/07/21 01:02:21;;;;;;;2.28;1.23;;;20.20;49.80;;;;;;4986219;23;20070;-54
2023/07/21 01:04:51;;;;;;;3.08;1.67;;;20.20;49.90;;;;;;4965648;28;20067;-53
2023/07/21 01:07:18;;;;;;;2.65;1.30;;;20.20;50.00;;;;;;4965374;28;20058;-54
2023/07/21 01:09:46;;;;;;;3.08;1.30;;;20.20;49.90;;;;;;4962911;28;20055;-57
2023/07/21 01:12:14;;;;;;;1.63;1.10;;;20.20;50.00;;;;;;4964412;28;20066;-54
2023/07/21 01:14:41;;;;;;;1.73;1.25;;;20.20;50.00;;;;;;4964300;28;20058;-56
2023/07/21 01:17:10;;;;;;;1.75;1.25;;;20.20;50.10;;;;;;4963935;28;20054;-56
2023/07/21 01:19:38;;;;;;;2.50;1.27;;;20.20;50.00;;;;;;4964077;28;20138;-56
2023/07/21 01:22:13;;;;;;;2.00;1.30;;;20.20;50.00;;;;;;4964907;28;20410;-54
2023/07/21 01:24:44;;;;;;;4.90;1.45;;;20.20;50.10;;;;;;4965046;28;20058;-55
2023/07/21 01:27:14;;;;;;;1.42;1.23;;;20.20;50.10;;;;;;4962754;28;20485;-55
2023/07/21 01:29:43;;;;;;;1.95;1.23;;;20.20;50.10;;;;;;4964179;28;20520;-56
2023/07/21 01:32:13;;;;;;;2.63;1.35;;;20.20;50.00;;;;;;4963933;28;20054;-55
2023/07/21 01:34:41;;;;;;;1.73;1.30;;;20.20;50.00;;;;;;4965005;28;20058;-54
2023/07/21 01:37:09;;;;;;;1.48;1.20;;;20.20;50.00;;;;;;4964570;28;20150;-56
2023/07/21 01:39:37;;;;;;;2.70;1.30;;;20.20;50.00;;;;;;4964807;28;20062;-54
2023/07/21 01:42:06;;;;;;;1.33;1.20;;;20.20;50.00;;;;;;4963194;28;20410;-56
2023/07/21 01:44:35;;;;;;;2.70;1.50;;;20.20;50.00;;;;;;4965046;28;20058;-55
2023/07/21 01:47:04;;;;;;;3.03;1.25;;;20.20;50.10;;;;;;4964161;28;20065;-54
2023/07/21 01:49:32;;;;;;;1.95;1.30;;;20.20;50.00;;;;;;4965458;28;20333;-56
2023/07/21 01:51:59;;;;;;;3.92;1.60;;;20.20;50.00;;;;;;4963238;28;20054;-59
2023/07/21 01:54:31;;;;;;;1.60;1.40;;;20.20;49.90;;;;;;4964036;28;20050;-51
2023/07/21 01:57:03;;;;;;;2.05;1.33;;;20.20;50.10;;;;;;4963531;28;20073;-54
2023/07/21 01:59:30;;;;;;;6.18;1.63;;;20.20;50.10;;;;;;4963922;28;20137;-55
2023/07/21 02:01:59;;;;;;;1.85;1.35;;;20.10;49.90;;;;;;4962587;28;20050;-59
2023/07/21 02:04:27;;;;;;;2.95;1.30;;;20.10;50.00;;;;;;4963255;28;20066;-54
2023/07/21 02:06:54;;;;;;;1.08;0.98;;;20.00;50.10;;;;;;4963823;28;20509;-56
2023/07/21 02:09:22;;;;;;;1.65;1.10;;;20.00;50.20;;;;;;4963392;28;20070;-54
2023/07/21 02:11:49;;;;;;;2.50;1.30;;;20.00;50.30;;;;;;4962969;28;20508;-57
2023/07/21 02:14:17;;;;;;;2.15;1.30;;;20.00;50.40;;;;;;4963727;28;20047;-56
2023/07/21 02:16:45;;;;;;;1.67;1.10;;;20.00;50.50;;;;;;4962114;28;20394;-56
2023/07/21 02:19:14;;;;;;;2.08;0.98;;;20.00;50.50;;;;;;4962471;28;20061;-53
2023/07/21 02:21:41;;;;;;;1.63;1.10;;;20.00;50.60;;;;;;4963307;28;20050;-55
2023/07/21 02:24:08;;;;;;;5.10;1.30;;;20.00;50.70;;;;;;4963480;28;20411;-56
2023/07/21 02:26:36;;;;;;;1.45;1.23;;;20.00;50.60;;;;;;4961930;28;20061;-53
2023/07/21 02:29:03;;;;;;;1.85;1.40;;;20.00;50.70;;;;;;4962710;28;20058;-54
2023/07/21 02:31:31;;;;;;;1.25;1.15;;;20.00;50.70;;;;;;4962725;28;20042;-53
2023/07/21 02:33:58;;;;;;;3.53;1.30;;;20.00;50.70;;;;;;4963172;28;20062;-58
2023/07/21 02:50:01;;;;;;;2.45;1.33;;;19.90;50.60;;;;;;4970472;28;20047;-55
2023/07/21 02:52:28;;;;;;;2.05;1.23;;;19.90;50.60;;;;;;4964289;28;20493;-54
2023/07/21 02:54:56;;;;;;;2.05;1.17;;;19.90;50.60;;;;;;4963142;28;20057;-56
2023/07/21 02:57:23;;;;;;;2.15;1.20;;;20.00;50.70;;;;;;4963172;28;20395;-56
2023/07/21 02:59:51;;;;;;;2.95;1.25;;;19.90;50.70;;;;;;4964214;28;20058;-54
2023/07/21 03:02:18;;;;;;;1.65;1.25;;;19.90;50.70;;;;;;4962948;28;20054;-53
2023/07/21 03:04:46;;;;;;;1.75;1.30;;;19.90;50.70;;;;;;4963229;28;20509;-54
2023/07/21 03:07:16;;;;;;;1.63;1.10;;;19.90;50.60;;;;;;4963478;28;20078;-55
2023/07/21 03:09:43;;;;;;;1.65;1.20;;;19.90;50.50;;;;;;4963361;28;20051;-59
2023/07/21 03:12:11;;;;;;;2.28;1.35;;;19.90;50.50;;;;;;4962722;28;20057;-56
2023/07/21 03:14:38;;;;;;;1.73;1.15;;;19.90;50.40;;;;;;4962790;28;20066;-58
2023/07/21 03:17:05;;;;;;;1.83;1.45;;;19.90;50.40;;;;;;4962308;28;20057;-55
2023/07/21 03:19:32;;;;;;;2.95;1.58;;;19.90;50.40;;;;;;4962746;28;20054;-54
2023/07/21 03:22:00;;;;;;;3.45;1.55;;;19.80;50.40;;;;;;4963714;28;20061;-56
2023/07/21 03:24:29;;;;;;;2.47;1.67;;;19.80;50.70;;;;;;4963470;28;20051;-55
2023/07/21 03:26:56;;;;;;;3.22;1.50;;;19.80;51.00;;;;;;4963320;28;20585;-52
2023/07/21 03:29:23;;;;;;;4.05;1.77;;;19.70;50.90;;;;;;4962894;28;20050;-54
2023/07/21 03:31:50;;;;;;;4.38;1.88;;;19.60;51.20;;;;;;4960740;28;20416;-51
2023/07/21 03:34:18;;;;;;;2.47;1.48;;;19.50;51.40;;;;;;4963081;28;20073;-50
2023/07/21 03:36:47;;;;;;;3.35;2.00;;;19.50;51.70;;;;;;4963057;28;20051;-58
2023/07/21 03:39:14;;;;;;;4.63;2.30;;;19.30;51.80;;;;;;4963318;28;20430;-50
2023/07/21 03:41:43;;;;;;;3.60;2.00;;;19.20;52.10;;;;;;4966490;28;20062;-52
2023/07/21 03:44:12;;;;;;;5.20;2.90;;;19.10;52.30;;;;;;4966280;28;20081;-48
2023/07/21 03:46:40;;;;;;;5.35;3.00;;;19.00;53.10;;;;;;4965691;28;20065;-57
2023/07/21 03:49:07;;;;;;;5.22;3.88;;;18.90;53.30;;;;;;4965141;28;20414;-53
2023/07/21 03:51:34;;;;;;;6.72;3.80;;;18.90;53.90;;;;;;4965999;28;20467;-51
2023/07/21 03:54:01;;;;;;;9.25;5.05;;;18.80;54.20;;;;;;4965524;28;20053;-53
2023/07/21 03:56:29;;;;;;;9.90;6.00;;;18.80;54.80;;;;;;4966281;28;20569;-58
2023/07/21 03:58:58;;;;;;;8.60;6.05;;;18.70;55.10;;;;;;4965568;28;20054;-54
2023/07/21 04:01:26;;;;;;;8.35;6.50;;;18.70;55.40;;;;;;4963549;28;20082;-52
2023/07/21 04:03:54;;;;;;;9.52;7.80;;;18.70;55.60;;;;;;4965917;28;20513;-53
2023/07/21 04:06:23;;;;;;;10.25;9.05;;;18.70;55.70;;;;;;4965842;28;20062;-54
2023/07/21 04:08:51;;;;;;;15.40;9.45;;;18.70;56.00;;;;;;4966614;28;20411;-54
2023/07/21 04:11:18;;;;;;;10.40;7.88;;;18.70;56.20;;;;;;4965435;28;20050;-54
2023/07/21 04:13:45;;;;;;;11.77;9.10;;;18.70;56.30;;;;;;4965094;28;20395;-54
2023/07/21 04:16:14;;;;;;;10.82;8.48;;;18.70;56.60;;;;;;4963924;28;20054;-56
2023/07/21 04:18:41;;;;;;;10.18;8.05;;;18.70;56.60;;;;;;4964016;28;20073;-56
2023/07/21 04:21:08;;;;;;;8.68;7.60;;;18.70;56.60;;;;;;4965845;28;20061;-54
2023/07/21 04:23:36;;;;;;;8.50;7.03;;;18.70;56.60;;;;;;4965907;28;20145;-53
2023/07/21 04:26:03;;;;;;;7.30;5.95;;;18.70;56.50;;;;;;4964734;28;20070;-53
2023/07/21 04:28:31;;;;;;;7.78;5.95;;;18.70;56.40;;;;;;4964758;28;20074;-57
2023/07/21 04:30:58;;;;;;;8.18;5.28;;;18.80;56.40;;;;;;4964203;28;20531;-54
2023/07/21 04:33:27;;;;;;;7.97;6.75;;;18.80;56.30;;;;;;4966039;28;20418;-64
2023/07/21 04:35:56;;;;;;;7.68;5.85;;;18.90;56.30;;;;;;4966553;28;20058;-65
2023/07/21 04:38:23;;;;;;;6.95;5.53;;;18.90;56.20;;;;;;4966169;28;20080;-65
2023/07/21 04:40:50;;;;;;;6.32;5.22;;;19.00;56.20;;;;;;4965108;28;20418;-65
2023/07/21 04:43:17;;;;;;;7.28;5.13;;;19.00;56.10;;;;;;4964958;28;20452;-62
2023/07/21 04:45:45;;;;;;;5.80;4.78;;;19.00;55.90;;;;;;4965220;28;20059;-64
2023/07/21 04:48:12;;;;;;;6.35;4.93;;;19.10;55.90;;;;;;4965070;28;20439;-65
2023/07/21 04:50:42;;;;;;;6.93;5.75;;;19.10;55.80;;;;;;4965566;28;20062;-65
2023/07/21 04:53:09;;;;;;;7.15;5.00;;;19.20;55.80;;;;;;4964860;28;20162;-64
2023/07/21 04:55:38;;;;;;;7.07;5.45;;;19.20;55.70;;;;;;4965208;28;20057;-63
2023/07/21 04:58:06;;;;;;;6.20;5.15;;;19.20;55.70;;;;;;4965754;28;20062;-64
2023/07/21 05:00:33;;;;;;;7.00;4.85;;;19.30;55.70;;;;;;4965839;28;20848;-65
2023/07/21 05:03:05;;;;;;;6.80;5.35;;;19.30;55.60;;;;;;4964826;28;20049;-64
2023/07/21 05:05:34;;;;;;;6.28;5.15;;;19.30;55.50;;;;;;4964482;28;20062;-65
2023/07/21 05:08:03;;;;;;;9.48;5.22;;;19.40;55.50;;;;;;4965236;28;20054;-64
2023/07/21 05:10:31;;;;;;;6.07;5.13;;;19.40;55.40;;;;;;4963258;28;20050;-65
2023/07/21 05:12:59;;;;;;;6.68;5.07;;;19.40;55.30;;;;;;4943575;28;20047;-65
2023/07/21 05:15:27;;;;;;;6.13;4.80;;;19.40;55.20;;;;;;4946592;28;20479;-62
2023/07/21 05:17:57;;;;;;;6.13;5.13;;;19.50;55.20;;;;;;4946978;28;20062;-62
2023/07/21 05:20:24;;;;;;;9.45;5.82;;;19.50;55.10;;;;;;4946036;28;20055;-63
2023/07/21 05:22:52;;;;;;;7.22;5.65;;;19.50;55.20;;;;;;4945495;28;20054;-64
2023/07/21 05:25:20;;;;;;;6.43;5.50;;;19.50;55.40;;;;;;4946248;28;20085;-64
2023/07/21 05:27:48;;;;;;;7.57;5.75;;;19.60;55.50;;;;;;4945383;28;20062;-64
2023/07/21 05:30:15;;;;;;;10.35;6.00;;;19.60;55.50;;;;;;4945193;28;20063;-63
2023/07/21 05:32:42;;;;;;;9.95;6.90;;;19.60;55.60;;;;;;4945144;28;20051;-61
2023/07/21 05:35:11;;;;;;;13.68;5.90;;;19.60;55.70;;;;;;4944886;28;20085;-64
2023/07/21 05:37:38;;;;;;;7.13;5.63;;;19.60;55.70;;;;;;4945845;28;20055;-64
2023/07/21 05:40:08;;;;;;;12.63;7.55;;;19.60;55.70;;;;;;4945575;28;20509;-64
2023/07/21 05:42:36;;;;;;;26.33;8.80;;;19.60;56.00;;;;;;4945710;28;20051;-64
2023/07/21 05:45:05;;;;;;;10.88;8.40;;;19.60;56.30;;;;;;4945560;28;20063;-55
2023/07/21 05:47:32;;;;;;;16.80;9.77;;;19.60;56.50;;;;;;4944272;28;20063;-54
2023/07/21 05:50:01;;;;;;;8.45;7.28;;;19.60;56.70;;;;;;4944474;28;20055;-56
2023/07/21 05:52:28;;;;;;;15.80;9.35;;;19.50;56.80;;;;;;4945592;28;20055;-49
2023/07/21 05:54:55;;;;;;;11.02;8.70;;;19.50;57.10;;;;;;4945458;28;20051;-58
2023/07/21 05:57:23;;;;;;;12.57;9.25;;;19.50;57.10;;;;;;4945157;28;20146;-56
2023/07/21 05:59:52;;;;;;;11.93;9.18;;;19.50;57.20;;;;;;4944640;28;20051;-55
2023/07/21 06:02:19;;;;;;;11.25;8.80;;;19.50;57.10;;;;;;4943148;28;20061;-52
2023/07/21 06:04:46;;;;;;;15.40;7.88;;;19.50;57.00;;;;;;4943969;28;20430;-52
2023/07/21 06:07:13;;;;;;;9.82;8.20;;;19.50;57.00;;;;;;4944610;28;20062;-49
2023/07/21 06:09:41;;;;;;;9.32;8.35;;;19.40;57.00;;;;;;4944935;28;20507;-49
2023/07/21 06:12:09;;;;;;;14.18;9.60;;;19.40;57.10;;;;;;4945194;28;20070;-53
2023/07/21 06:14:36;;;;;;;13.27;9.63;;;19.40;57.20;;;;;;4944769;28;20062;-53
2023/07/21 06:17:06;;;;;;;12.07;8.70;;;19.40;57.30;;;;;;4943983;28;20419;-54
2023/07/21 06:19:34;;;;;;;8.57;7.68;;;19.40;57.20;;;;;;4943994;28;20403;-58
2023/07/21 06:22:01;;;;;;;10.13;8.05;;;19.40;57.10;;;;;;4944408;28;20483;-56
2023/07/21 06:24:29;;;;;;;8.13;7.05;;;19.40;57.10;;;;;;4945016;28;20063;-58
2023/07/21 06:26:56;;;;;;;9.00;7.35;;;19.40;57.10;;;;;;4945021;28;20065;-52
2023/07/21 06:29:23;;;;;;;10.70;8.23;;;19.50;57.10;;;;;;4944898;28;20063;-50
2023/07/21 06:31:51;;;;;;;10.18;7.20;;;19.50;57.10;;;;;;4943570;28;20082;-52
2023/07/21 06:34:22;;;;;;;8.77;6.70;;;19.50;57.00;;;;;;4944544;28;20418;-51
2023/07/21 06:36:49;;;;;;;9.10;7.65;;;19.60;56.90;;;;;;4944395;28;20062;-56
2023/07/21 06:39:16;;;;;;;9.32;6.63;;;19.60;56.80;;;;;;4943949;28;20058;-52
2023/07/21 06:41:44;;;;;;;9.55;6.18;;;19.70;56.60;;;;;;4945077;28;20082;-55
2023/07/21 06:44:11;;;;;;;5.25;4.75;;;19.70;56.50;;;;;;4944001;28;20077;-53
2023/07/21 06:46:39;;;;;;;5.88;5.07;;;19.80;56.40;;;;;;4943353;28;20055;-54
2023/07/21 06:49:06;;;;;;;8.40;6.95;;;19.80;56.40;;;;;;4944521;28;20063;-55
2023/07/21 06:51:35;;;;;;;8.80;7.05;;;19.90;56.40;;;;;;4944852;28;20063;-50
2023/07/21 06:54:03;;;;;;;6.95;6.28;;;20.00;56.40;;;;;;4944057;28;20387;-64
2023/07/21 06:56:31;;;;;;;6.53;5.63;;;20.00;56.10;;;;;;4944268;28;20070;-64
2023/07/21 06:58:59;;;;;;;9.07;6.20;;;20.00;56.00;;;;;;4944329;28;20069;-65
2023/07/21 07:01:26;;;;;;;8.43;5.93;;;20.00;56.10;;;;;;4941926;28;20070;-60
2023/07/21 07:03:55;;;;;;;5.70;5.10;;;20.10;56.10;;;;;;4944132;28;20507;-61
2023/07/21 07:06:22;;;;;;;8.00;6.07;;;20.10;55.90;;;;;;4943729;28;20051;-64
2023/07/21 07:08:52;;;;;;;10.23;6.80;;;20.20;56.50;;;;;;4945064;28;20055;-63
2023/07/21 07:11:19;;;;;;;10.38;7.47;;;20.20;56.00;;;;;;4943948;28;20055;-64
2023/07/21 07:13:47;;;;;;;10.75;7.53;;;20.30;55.90;;;;;;4947818;28;20055;-64
2023/07/21 07:16:14;;;;;;;6.80;5.32;;;20.30;55.90;;;;;;4947573;28;20525;-64
2023/07/21 07:18:42;;;;;;;6.22;5.35;;;20.40;55.90;;;;;;4948553;28;20514;-63
2023/07/21 07:21:09;;;;;;;10.07;5.57;;;20.40;55.10;;;;;;4946755;28;20070;-65
2023/07/21 07:23:36;;;;;;;6.85;5.25;;;20.40;54.50;;;;;;4947465;28;20063;-65
2023/07/21 07:26:05;;;;;;;5.95;4.88;;;20.40;54.30;;;;;;4947658;28;20055;-63
2023/07/21 07:28:32;;;;;;;5.68;4.60;;;20.40;54.20;;;;;;4947376;28;20047;-65
2023/07/21 07:31:04;;;;;;;5.97;4.55;;;20.40;54.40;;;;;;4945432;28;20559;-64
2023/07/21 07:33:31;;;;;;;5.72;4.72;;;20.40;54.40;;;;;;4947848;28;20505;-65
2023/07/21 07:35:59;;;;;;;9.45;4.25;;;20.40;54.10;;;;;;4946614;28;20058;-62
2023/07/21 07:38:28;;;;;;;6.95;4.55;;;20.40;54.10;;;;;;4946416;28;20066;-63
2023/07/21 07:41:00;;;;;;;5.38;4.22;;;20.30;53.90;;;;;;4947341;28;20051;-63
2023/07/21 07:43:29;;;;;;;8.95;5.85;;;20.40;53.90;;;;;;4947712;28;20150;-63
2023/07/21 07:45:58;;;;;;;7.05;4.82;;;20.40;53.80;;;;;;4947914;28;20070;-60
2023/07/21 07:48:25;;;;;;;7.15;4.60;;;20.40;53.90;;;;;;4947914;28;20062;-65
2023/07/21 07:50:53;;;;;;;7.85;5.05;;;20.40;54.10;;;;;;4945720;28;20431;-63
2023/07/21 07:53:21;;;;;;;7.85;4.50;;;20.40;54.30;;;;;;4947918;28;20062;-63
2023/07/21 07:55:48;;;;;;;7.97;4.43;;;20.40;54.50;;;;;;4946298;28;20058;-62
2023/07/21 07:58:16;;;;;;;7.13;5.20;;;20.40;54.50;;;;;;4946266;28;20062;-62
2023/07/21 08:00:47;;;;;;;5.75;4.10;;;20.40;54.40;;;;;;4945699;28;20058;-64
2023/07/21 08:03:15;;;;;;;4.72;4.00;;;20.50;54.50;;;;;;4946495;28;20054;-53
2023/07/21 08:05:42;;;;;;;5.32;3.30;;;20.50;54.40;;;;;;4945496;28;20464;-58
2023/07/21 08:08:10;;;;;;;7.20;4.22;;;20.60;54.40;;;;;;4946812;28;20478;-57
2023/07/21 08:10:37;;;;;;;6.35;4.13;;;20.60;54.40;;;;;;4946292;28;20055;-58
2023/07/21 08:13:05;;;;;;;6.45;3.50;;;20.70;54.40;;;;;;4946559;28;20051;-57
2023/07/21 08:15:32;;;;;;;4.25;3.35;;;20.80;54.30;;;;;;4945991;28;20074;-57
2023/07/21 08:18:01;;;;;;;8.50;3.97;;;20.90;54.20;;;;;;4945866;28;20062;-58
2023/07/21 08:20:28;;;;;;;4.15;2.90;;;20.90;53.90;;;;;;4946117;28;20078;-58
2023/07/21 08:22:55;;;;;;;4.80;2.85;;;21.00;53.70;;;;;;4946406;28;20051;-60
2023/07/21 08:25:23;;;;;;;3.17;2.85;;;21.10;53.60;;;;;;4946672;28;20051;-58
2023/07/21 08:27:50;;;;;;;3.10;2.65;;;21.20;53.50;;;;;;4945024;28;20051;-59
2023/07/21 08:30:17;;;;;;;6.10;3.03;;;21.30;53.30;;;;;;4945027;28;20081;-57
2023/07/21 08:32:44;;;;;;;3.53;2.53;;;21.30;53.00;;;;;;4945748;28;20070;-56
2023/07/21 08:35:13;;;;;;;4.88;3.03;;;21.40;52.80;;;;;;4946889;28;20066;-55
2023/07/21 08:37:40;;;;;;;4.90;2.53;;;21.50;52.50;;;;;;4945733;28;20062;-56
2023/07/21 08:40:09;;;;;;;2.72;2.30;;;21.60;52.30;;;;;;4945922;28;20059;-56
2023/07/21 08:42:37;;;;;;;3.75;2.53;;;21.60;52.00;;;;;;4945857;28;20058;-55
2023/07/21 08:45:06;;;;;;;4.65;3.13;;;21.70;51.70;;;;;;4945757;28;20055;-55
2023/07/21 08:47:34;;;;;;;4.93;2.90;;;21.70;51.00;;;;;;4943994;28;20078;-55
2023/07/21 08:50:01;;;;;;;6.43;3.00;;;21.80;51.00;;;;;;4946893;28;20605;-55
2023/07/21 08:52:31;;;;;;;3.88;2.17;;;21.80;51.10;;;;;;4945339;28;20055;-58
2023/07/21 08:54:58;;;;;;;7.82;3.22;;;21.90;51.10;;;;;;4946550;28;20051;-51
2023/07/21 08:57:25;;;;;;;4.28;3.00;;;21.90;50.40;;;;;;4946530;28;20050;-51
2023/07/21 08:59:55;;;;;;;4.95;3.40;;;21.90;50.70;;;;;;4945000;28;20059;-52
2023/07/21 09:02:37;;;;;;;6.13;3.85;;;22.00;51.00;;;;;;4944828;28;20534;-52
2023/07/21 09:05:05;;;;;;;6.05;3.22;;;22.00;50.90;;;;;;4945942;28;20136;-50
2023/07/21 09:07:36;;;;;;;7.85;2.90;;;22.10;50.50;;;;;;4944634;28;20586;-54
2023/07/21 09:10:05;;;;;;;3.88;2.35;;;22.10;50.30;;;;;;4944770;28;20071;-52
2023/07/21 09:12:36;;;;;;;3.92;2.63;;;22.10;50.50;;;;;;4945141;28;20495;-51
2023/07/21 09:15:09;;;;;;;4.57;3.38;;;22.10;50.40;;;;;;4944809;28;20055;-53
2023/07/21 09:17:41;;;;;;;5.30;3.10;;;22.20;50.10;;;;;;4943959;28;20055;-52
2023/07/21 09:20:10;;;;;;;6.53;3.95;;;22.20;50.20;;;;;;4943882;28;20495;-52
2023/07/21 09:22:39;;;;;;;5.30;3.33;;;22.30;50.30;;;;;;4943870;28;20062;-58
2023/07/21 09:25:08;;;;;;;4.97;3.65;;;22.30;50.10;;;;;;4945686;28;20071;-54
2023/07/21 09:27:38;;;;;;;3.95;2.60;;;22.40;50.10;;;;;;4943991;28;20046;-55
2023/07/21 09:30:07;;;;;;;4.90;3.63;;;22.40;50.10;;;;;;4944097;28;20367;-55
2023/07/21 09:32:40;;;;;;;4.95;2.95;;;22.50;50.00;;;;;;4942661;28;20521;-54
2023/07/21 09:35:10;;;;;;;4.15;3.10;;;22.50;49.80;;;;;;4944627;28;20051;-56
2023/07/21 09:37:39;;;;;;;5.72;3.53;;;22.60;50.00;;;;;;4944871;28;20059;-52
2023/07/21 09:40:09;;;;;;;6.72;4.93;;;22.60;49.70;;;;;;4943858;28;20061;-48
2023/07/21 09:42:37;;;;;;;5.43;3.72;;;22.70;47.40;;;;;;4946045;28;20059;-58
2023/07/21 09:45:05;;;;;;;4.60;3.70;;;22.70;48.00;;;;;;4944927;28;20055;-55
2023/07/21 09:47:32;;;;;;;4.78;3.88;;;22.70;47.90;;;;;;4944280;28;20075;-55
2023/07/21 09:50:00;;;;;;;5.93;4.45;;;22.70;47.90;;;;;;4945491;28;20139;-53
2023/07/21 09:52:30;;;;;;;5.45;3.40;;;22.70;47.40;;;;;;4945756;28;20495;-54
2023/07/21 09:55:08;;;;;;;7.90;4.68;;;22.80;48.10;;;;;;4945133;28;20058;-55
2023/07/21 09:57:40;;;;;;;4.97;3.90;;;22.80;48.30;;;;;;4944870;28;20054;-58
2023/07/21 10:00:13;;;;;;;5.00;4.30;;;22.80;48.50;;;;;;4943746;28;20063;-55
2023/07/21 10:02:42;;;;;;;7.03;4.13;;;22.90;48.60;;;;;;4944476;28;20065;-50
2023/07/21 10:05:11;;;;;;;10.00;6.72;;;22.90;48.50;;;;;;4945381;28;20129;-57
2023/07/21 10:07:40;;;;;;;12.45;6.00;;;23.00;47.30;;;;;;4945027;28;20065;-49
2023/07/21 10:10:10;;;;;;;8.55;5.78;;;23.00;46.90;;;;;;4944639;28;20054;-48
2023/07/21 10:12:49;;;;;;;6.95;4.93;;;23.00;46.90;;;;;;4944948;28;20066;-53
2023/07/21 10:15:19;;;;;;;6.40;4.97;;;23.00;45.60;;;;;;4944693;28;20051;-58
2023/07/21 10:17:57;;;;;;;7.35;5.50;;;22.90;45.90;;;;;;4944096;28;20051;-51
2023/07/21 10:20:42;;;;;;;7.25;4.93;;;22.90;45.60;;;;;;4944006;28;20070;-54
2023/07/21 10:23:10;;;;;;;7.82;5.57;;;22.90;45.70;;;;;;4945532;28;20051;-59
2023/07/21 10:25:54;;;;;;;7.93;5.93;;;22.80;45.70;;;;;;4945273;28;20062;-58
2023/07/21 10:28:24;;;;;;;6.32;4.43;;;22.80;44.70;;;;;;4944062;28;20051;-60
2023/07/21 10:30:52;;;;;;;6.30;5.00;;;22.80;44.40;;;;;;4943006;28;20055;-60
2023/07/21 10:33:21;;;;;;;8.02;5.93;;;22.70;44.90;;;;;;4944787;28;20055;-61
2023/07/21 10:35:49;;;;;;;7.18;5.70;;;22.80;45.40;;;;;;4944110;28;20047;-59
2023/07/21 10:38:27;;;;;;;9.95;6.10;;;22.80;45.50;;;;;;4944235;28;20062;-60
2023/07/21 10:40:56;;;;;;;7.35;5.40;;;22.80;45.80;;;;;;4944400;28;20055;-63
2023/07/21 10:43:23;;;;;;;11.52;6.32;;;22.90;46.00;;;;;;4944834;28;20069;-60
2023/07/21 10:45:53;;;;;;;8.98;6.03;;;22.90;46.00;;;;;;4944446;28;20051;-64
2023/07/21 10:48:23;;;;;;;7.38;5.80;;;23.00;45.80;;;;;;4948384;28;20499;-60
2023/07/21 10:50:54;;;;;;;10.10;6.55;;;23.10;45.70;;;;;;4947743;28;20055;-63
2023/07/21 10:53:23;;;;;;;5.32;4.05;;;23.20;44.60;;;;;;4948808;28;20476;-60
2023/07/21 10:55:52;;;;;;;4.60;3.67;;;23.20;44.80;;;;;;4947776;28;20055;-60
2023/07/21 10:58:21;;;;;;;3.80;3.20;;;23.20;44.70;;;;;;4947027;28;20338;-60
2023/07/21 11:00:49;;;;;;;8.23;5.85;;;23.20;44.90;;;;;;4945670;28;20062;-62
2023/07/21 11:03:17;;;;;;;5.28;3.97;;;23.30;44.00;;;;;;4947734;28;20611;-61
2023/07/21 11:05:45;;;;;;;4.45;3.78;;;23.30;44.20;;;;;;4948290;28;20055;-63
2023/07/21 11:08:13;;;;;;;5.07;3.88;;;23.30;44.60;;;;;;4948821;28;20396;-62
2023/07/21 11:10:40;;;;;;;6.05;3.88;;;23.30;44.50;;;;;;4948697;28;20063;-61
2023/07/21 11:13:07;;;;;;;5.82;4.35;;;23.30;44.70;;;;;;4947971;28;20059;-64
2023/07/21 11:15:36;;;;;;;5.30;4.43;;;23.30;44.80;;;;;;4947265;28;20442;-65
2023/07/21 11:18:04;;;;;;;4.75;4.18;;;23.20;44.70;;;;;;4947807;28;20066;-62
2023/07/21 11:20:32;;;;;;;5.57;3.58;;;23.30;44.80;;;;;;4948049;28;20067;-64
2023/07/21 11:22:59;;;;;;;7.50;4.80;;;23.20;44.80;;;;;;4948201;28;20062;-59
2023/07/21 11:25:27;;;;;;;7.03;5.00;;;23.30;44.90;;;;;;4948334;28;20515;-64
2023/07/21 11:27:54;;;;;;;6.10;4.80;;;23.20;44.60;;;;;;4947645;28;20051;-63
2023/07/21 11:30:22;;;;;;;7.13;5.22;;;23.30;44.80;;;;;;4946178;28;20059;-61
2023/07/21 11:33:09;;;;;;;8.20;4.50;;;23.20;44.70;;;;;;4947023;28;20051;-64
2023/07/21 11:35:37;;;;;;;6.20;5.30;;;23.30;44.90;;;;;;4948688;28;20062;-52
2023/07/21 11:38:10;;;;;;;9.30;5.68;;;23.20;44.50;;;;;;4946959;28;20062;-49
2023/07/21 11:40:37;;;;;;;6.03;4.70;;;23.20;45.20;;;;;;4948460;28;20066;-57
2023/07/21 11:43:08;;;;;;;5.32;4.10;;;23.10;45.60;;;;;;4948319;28;20419;-54
2023/07/21 11:45:36;;;;;;;5.50;3.70;;;23.10;46.40;;;;;;4946118;28;20047;-49
2023/07/21 11:48:12;;;;;;;8.68;3.85;;;23.00;47.10;;;;;;4945936;28;20055;-50
2023/07/21 11:50:42;;;;;;;4.22;3.53;;;23.00;47.70;;;;;;4947585;28;20058;-48
2023/07/21 11:53:10;;;;;;;6.90;4.07;;;23.00;47.90;;;;;;4947188;28;20055;-50
2023/07/21 11:55:38;;;;;;;4.82;3.65;;;22.90;48.20;;;;;;4945157;28;20067;-57
2023/07/21 11:58:05;;;;;;;9.30;3.33;;;22.90;48.30;;;;;;4946228;28;21600;-53
2023/07/21 12:00:33;;;;;;;6.88;4.35;;;22.80;48.10;;;;;;4946161;28;20415;-51
2023/07/21 12:03:01;;;;;;;4.68;3.80;;;22.90;48.30;;;;;;4946098;28;20067;-52
2023/07/21 12:05:31;;;;;;;7.75;4.55;;;22.80;48.50;;;;;;4947330;28;20058;-51
2023/07/21 12:07:59;;;;;;;5.10;4.10;;;22.80;49.10;;;;;;4947074;28;20059;-53
2023/07/21 12:10:27;;;;;;;5.00;4.03;;;22.80;49.30;;;;;;4947874;28;20070;-51
2023/07/21 12:12:54;;;;;;;5.07;3.83;;;22.80;49.30;;;;;;4948122;28;20489;-51
2023/07/21 12:15:21;;;;;;;6.18;4.57;;;22.80;49.50;;;;;;4945053;28;20059;-57
2023/07/21 12:17:48;;;;;;;5.28;3.92;;;22.80;49.70;;;;;;4945844;28;20423;-53
2023/07/21 12:20:17;;;;;;;4.38;3.45;;;22.80;49.80;;;;;;4946156;28;20146;-53
2023/07/21 12:22:46;;;;;;;4.82;3.28;;;22.80;49.90;;;;;;4946719;28;20498;-48
2023/07/21 12:25:14;;;;;;;4.53;3.28;;;22.80;49.90;;;;;;4945990;28;20411;-52
2023/07/21 12:27:41;;;;;;;6.15;3.13;;;22.80;50.00;;;;;;4947183;28;20066;-49
2023/07/21 12:30:09;;;;;;;8.52;3.10;;;22.70;50.00;;;;;;4946187;28;20055;-50
2023/07/21 12:32:36;;;;;;;5.53;2.28;;;22.70;50.10;;;;;;4945384;28;20059;-50
2023/07/21 12:35:04;;;;;;;5.75;2.83;;;22.70;50.30;;;;;;4946978;28;20475;-48
2023/07/21 12:37:32;;;;;;;5.50;2.60;;;22.70;50.50;;;;;;4946374;28;20063;-49
2023/07/21 12:40:01;;;;;;;5.25;2.75;;;22.60;50.80;;;;;;4946446;28;20076;-50
2023/07/21 12:42:29;;;;;;;6.30;3.22;;;22.60;51.00;;;;;;4945340;28;20614;-49
2023/07/21 12:44:56;;;;;;;3.97;2.42;;;22.50;51.10;;;;;;4947173;28;20055;-63
2023/07/21 12:47:24;;;;;;;4.65;2.13;;;22.50;51.20;;;;;;4944415;28;20047;-60
2023/07/21 12:49:51;;;;;;;4.75;2.10;;;22.40;51.20;;;;;;4946662;28;20059;-54
2023/07/21 12:52:18;;;;;;;4.55;2.05;;;22.30;51.10;;;;;;4946358;28;20059;-59
2023/07/21 12:54:45;;;;;;;4.78;2.50;;;22.20;51.10;;;;;;4945883;28;20357;-59
2023/07/21 12:57:14;;;;;;;5.22;2.40;;;22.10;51.10;;;;;;4945993;28;20051;-58
2023/07/21 12:59:41;;;;;;;3.03;1.60;;;22.10;51.30;;;;;;4945855;28;20055;-59
2023/07/21 13:02:08;;;;;;;3.47;1.73;;;22.00;51.40;;;;;;4943499;28;20058;-59
2023/07/21 13:04:36;;;;;;;3.05;1.40;;;21.90;51.40;;;;;;4945934;28;20462;-59